Latest Weather Observations for Blackwater Airport

IDQ60801

Issued at 3:02 pm EST Tuesday 21 February 2017 (issued every 30 minutes, with the page automatically refreshed every 10 minutes)

About weather observations | Map of weather stations | Latest weather observations for QLD | Other Formats
Station Details ID: 035134 Name: BLACKWATER AIRPORT Lat: -23.60 Lon: 148.81 Height: 192.95 m
Data from the previous 72 hours. | See also: Recent months at Blackwater Airport
Date/Time
EST
Temp
°C
App
Temp
°C
Dew
Point
°C
Rel
Hum
%
Delta-T
°C
Wind Press
QNH
hPa
Press
MSL
hPa
Rain since
9am
mm
Dir  Spd
km/h
Gust
km/h
Spd
kts
Gust
kts
21/03:00pm 35.8 32.1 6.1 16 16.4 S 15 20 8 11 1012.2 1010.9 0.0
21/02:30pm 35.6 31.4 5.9 16 16.3 SSE 17 32 9 17 1012.5 1011.2 0.0
21/02:00pm 35.5 33.4 6.7 17 16.0 N 7 11 4 6 1012.7 1011.4 0.0
21/01:30pm 35.1 33.1 6.4 17 15.8 NNW 6 15 3 8 1013.1 1011.9 0.0
21/01:00pm 35.0 31.3 6.3 17 15.8 E 15 24 8 13 1013.4 1012.2 0.0
21/12:30pm 34.8 31.3 7.0 18 15.5 E 15 24 8 13 1013.9 1012.7 0.0
21/12:00pm 34.3 31.0 6.6 18 15.3 NNE 13 19 7 10 1014.4 1013.1 0.0
21/11:30am 33.0 30.2 7.1 20 14.3 SSE 11 15 6 8 1014.7 1013.4 0.0
21/11:00am 32.7 29.9 6.8 20 14.2 ENE 11 17 6 9 1015.2 1013.9 0.0
21/10:30am 31.9 28.6 6.2 20 13.9 ENE 13 20 7 11 1015.4 1014.1 0.0
21/10:00am 30.8 28.9 6.6 22 13.1 NE 6 11 3 6 1015.7 1014.4 0.0
21/09:30am 30.2 28.3 7.4 24 12.5 NNE 7 13 4 7 1015.7 1014.4 0.0
21/09:00am 29.8 27.8 7.1 24 12.3 S 7 11 4 6 1015.7 1014.4 0.0
21/08:30am 28.7 26.6 6.7 25 11.8 SSE 7 11 4 6 1015.6 1014.3 0.0
21/08:00am 28.2 25.4 6.9 26 11.4 SSE 11 15 6 8 1015.3 1014.0 0.0
21/07:30am 25.4 23.6 9.3 36 8.9 S 9 13 5 7 1015.2 1013.9 0.0
21/07:00am 22.3 20.4 10.5 47 6.5 SSW 11 15 6 8 1015.1 1013.8 0.0
21/06:30am 19.3 17.2 9.8 54 5.1 S 11 13 6 7 1014.8 1013.5 0.0
21/06:00am 17.5 16.3 9.7 60 4.1 S 6 7 3 4 1014.5 1013.2 0.0
21/05:30am 17.8 15.4 9.9 60 4.2 SSW 13 15 7 8 1014.5 1013.2 0.0
21/05:00am 19.0 16.6 10.0 56 4.8 SW 13 13 7 7 1014.2 1012.9 0.0
21/04:30am 19.1 17.5 10.1 56 4.9 SW 9 13 5 7 1014.2 1012.9 0.0
21/04:00am 20.0 18.3 9.9 52 5.5 WSW 9 13 5 7 1013.8 1012.6 0.0
21/03:30am 20.5 18.5 10.0 51 5.7 WSW 11 15 6 8 1013.4 1012.2 0.0
21/03:00am 21.1 19.4 10.0 49 6.0 W 9 11 5 6 1013.1 1011.9 0.0
21/02:30am 20.9 18.8 9.8 49 6.0 WSW 11 13 6 7 1013.0 1011.8 0.0
21/02:00am 20.7 19.5 9.6 49 6.0 WSW 6 7 3 4 1012.8 1011.5 0.0
21/01:30am 21.5 20.0 9.1 45 6.7 SW 7 9 4 5 1012.7 1011.4 0.0
21/01:00am 22.1 21.1 8.9 43 7.1 ENE 4 11 2 6 1012.9 1011.7 0.0
21/12:30am 22.6 20.5 8.3 40 7.6 NE 9 13 5 7 1013.0 1011.8 0.0
21/12:00am 24.2 22.3 9.0 38 8.3 E 9 20 5 11 1012.8 1011.5 0.0
 
Date/Time
EST
Temp
°C
App
Temp
°C
Dew
Point
°C
Rel
Hum
%
Delta-T
°C
Wind Press
QNH
hPa
Press
MSL
hPa
Rain since
9am
mm
Dir  Spd
km/h
Gust
km/h
Spd
kts
Gust
kts
20/11:30pm 25.6 22.5 9.0 35 9.1 SSE 15 17 8 9 1012.7 1011.4 0.0
20/11:00pm 25.6 22.4 8.6 34 9.3 SE 15 17 8 9 1012.5 1011.2 0.0
20/10:30pm 26.7 23.1 8.2 31 10.1 SE 17 20 9 11 1012.5 1011.2 0.0
20/10:00pm 26.7 22.7 8.2 31 10.1 SSE 19 22 10 12 1012.6 1011.3 0.0
20/09:30pm 27.2 23.0 7.6 29 10.6 SSE 19 24 10 13 1012.6 1011.3 0.0
20/09:00pm 27.4 23.5 7.3 28 10.8 SSE 17 22 9 12 1012.5 1011.2 0.0
20/08:30pm 27.2 23.0 7.6 29 10.6 SE 19 20 10 11 1012.2 1010.9 0.0
20/08:00pm 28.1 24.6 7.4 27 11.2 SSE 15 19 8 10 1012.0 1010.7 0.0
20/07:30pm 28.3 24.4 7.0 26 11.5 S 17 20 9 11 1011.6 1010.3 0.0
20/07:00pm 28.9 24.7 5.7 23 12.3 S 17 20 9 11 1011.1 1009.8 0.0
20/06:30pm 30.2 26.6 4.8 20 13.3 SSW 13 17 7 9 1010.7 1009.4 0.0
20/06:00pm 32.4 27.2 3.4 16 15.0 SSW 20 26 11 14 1010.2 1008.9 0.0
20/05:30pm 33.3 30.1 3.2 15 15.6 SE 9 17 5 9 1009.7 1008.4 0.0
20/05:00pm 34.0 29.6 2.8 14 16.2 SSW 15 24 8 13 1009.4 1008.1 0.0
20/04:30pm 34.2 30.0 3.9 15 16.0 SSE 15 24 8 13 1009.2 1007.9 0.0
20/04:00pm 34.3 29.9 4.9 16 15.8 S 17 24 9 13 1009.1 1007.8 0.0
20/03:30pm 34.6 30.5 6.0 17 15.6 SSW 17 30 9 16 1009.0 1007.7 0.0
20/03:00pm 34.1 29.5 6.4 18 15.2 SW 20 33 11 18 1009.2 1007.9 0.0
20/02:30pm 34.8 30.3 7.0 18 15.5 SW 20 32 11 17 1009.3 1008.0 0.0
20/02:00pm 33.6 29.1 6.8 19 14.8 S 20 32 11 17 1009.8 1008.5 0.0
20/01:30pm 32.8 29.2 8.3 22 13.8 SSE 17 28 9 15 1010.3 1009.0 0.0
20/01:00pm 33.2 29.7 7.2 20 14.4 SW 15 26 8 14 1010.6 1009.3 0.0
20/12:30pm 32.8 28.7 6.2 19 14.5 SE 17 28 9 15 1011.0 1009.7 0.0
20/12:00pm 31.9 27.4 6.9 21 13.7 SSW 20 30 11 16 1011.3 1010.0 0.0
20/11:30am 32.0 27.0 4.7 18 14.4 SSE 20 26 11 14 1011.7 1010.4 0.0
20/11:00am 32.0 28.2 8.9 24 13.1 S 19 33 10 18 1011.9 1010.6 0.0
20/10:30am 29.4 28.2 14.0 39 9.3 E 13 20 7 11 1012.2 1010.9 0.0
20/10:00am 28.3 28.2 15.9 47 7.7 SE 11 20 6 11 1012.3 1011.0 0.0
20/09:30am 26.6 26.9 17.1 56 6.0 SE 11 20 6 11 1012.5 1011.2 0.0
20/09:00am 25.7 26.8 18.9 66 4.4 SSE 11 17 6 9 1012.5 1011.2 2.2
20/08:30am 24.7 26.0 20.2 76 2.9 SSW 13 17 7 9 1012.3 1011.0 2.2
20/08:00am 22.9 24.1 19.9 83 1.9 S 13 17 7 9 1012.2 1010.9 2.2
20/07:30am 21.7 22.9 20.0 90 1.1 SSW 13 15 7 8 1012.1 1010.8 2.2
20/07:00am 21.4 23.4 19.9 91 1.0 S 9 11 5 6 1011.8 1010.5 2.2
20/06:30am 20.3 22.0 19.3 94 0.6 S 9 13 5 7 1011.5 1010.2 2.2
20/06:00am 19.9 21.5 19.1 95 0.5 S 9 11 5 6 1011.1 1009.8 2.2
20/05:30am 20.2 20.7 19.2 94 0.6 S 15 17 8 9 1010.7 1009.4 2.0
20/05:00am 20.3 20.7 19.1 93 0.8 S 15 15 8 8 1010.6 1009.3 2.0
20/04:30am 20.7 21.7 19.5 93 0.8 S 13 15 7 8 1010.3 1009.0 2.0
20/04:00am 21.3 24.9 19.8 91 1.0 CALM 0 0 0 0 1010.0 1008.7 2.0
20/03:30am 21.6 24.2 20.1 91 1.0 SSE 6 7 3 4 1009.9 1008.6 2.0
20/03:00am 21.6 24.1 19.9 90 1.1 SSE 6 7 3 4 1010.0 1008.7 2.0
20/02:30am 21.5 23.8 19.8 90 1.1 SSE 7 7 4 4 1010.2 1008.9 2.0
20/02:00am 21.6 23.4 20.4 93 0.8 SSE 11 13 6 7 1010.1 1008.8 2.0
20/01:30am 21.7 24.2 20.2 91 1.0 S 7 9 4 5 1010.4 1009.1 2.0
20/01:00am 21.7 24.4 20.2 91 1.0 SSE 6 9 3 5 1010.6 1009.3 2.0
20/12:30am 21.5 22.7 20.0 91 1.0 S 13 17 7 9 1011.0 1009.7 2.0
20/12:00am 22.2 24.2 19.9 87 1.5 SE 9 13 5 7 1011.1 1009.8 1.4
 
Date/Time
EST
Temp
°C
App
Temp
°C
Dew
Point
°C
Rel
Hum
%
Delta-T
°C
Wind Press
QNH
hPa
Press
MSL
hPa
Rain since
9am
mm
Dir  Spd
km/h
Gust
km/h
Spd
kts
Gust
kts
19/11:30pm 22.3 22.6 19.7 85 1.7 S 17 26 9 14 1011.0 1009.7 1.4
19/11:00pm 22.5 22.3 19.7 84 1.8 S 20 32 11 17 1011.4 1010.1 1.4
19/10:30pm 22.9 21.6 19.9 83 1.9 SSE 26 35 14 19 1011.1 1009.8 1.4
19/10:23pm 23.2 23.5 19.6 80 2.3 SSE 17 35 9 19 1011.1 1009.8 1.4
19/10:00pm 25.1 27.6 19.9 73 3.4 S 6 9 3 5 1011.0 1009.7 1.4
19/09:30pm 24.9 25.6 19.7 73 3.4 S 15 24 8 13 1010.5 1009.2 1.4
19/09:00pm 24.7 25.5 19.8 74 3.2 NE 15 22 8 12 1009.6 1008.3 1.4
19/08:30pm 24.8 25.9 19.6 73 3.4 NE 13 19 7 10 1009.5 1008.2 1.4
19/08:00pm 25.0 25.7 18.9 69 3.9 NE 13 17 7 9 1009.4 1008.1 1.4
19/07:30pm 25.0 26.7 19.4 71 3.6 NE 9 11 5 6 1008.9 1007.6 1.4
19/07:00pm 25.3 26.5 19.0 68 4.1 NE 11 11 6 6 1008.3 1007.1 1.4
19/06:30pm 26.1 27.6 19.0 65 4.6 ENE 9 9 5 5 1007.8 1006.5 1.4
19/06:00pm 26.6 28.1 19.0 63 4.9 E 9 11 5 6 1007.4 1006.1 1.4
19/05:30pm 27.0 29.4 20.1 66 4.5 E 7 11 4 6 1007.0 1005.7 1.4
19/05:00pm 26.8 28.5 20.2 67 4.4 E 11 13 6 7 1006.8 1005.5 1.4
19/04:30pm 26.3 28.3 20.8 71 3.6 SE 11 15 6 8 1006.6 1005.3 1.4
19/04:00pm 26.3 28.2 21.3 74 3.3 SE 13 17 7 9 1006.8 1005.5 1.4
19/03:30pm 26.3 29.0 21.3 74 3.3 SE 9 13 5 7 1007.4 1006.1 1.4
19/03:00pm 26.3 28.5 21.1 73 3.5 S 11 15 6 8 1008.2 1007.0 1.4
19/02:30pm 26.8 29.0 21.8 74 3.4 S 13 15 7 8 1008.3 1007.1 1.2
19/02:00pm 27.0 26.7 19.6 64 4.8 W 20 26 11 14 1008.4 1007.2 1.2
19/01:30pm 29.3 29.2 18.7 52 6.9 W 17 22 9 12 1008.3 1007.1 0.4
19/01:00pm 31.3 31.4 16.5 41 9.4 WSW 11 17 6 9 1008.4 1007.2 0.2
19/12:30pm 31.5 32.5 17.8 44 8.8 WSW 9 15 5 8 1008.7 1007.4 0.2
19/12:00pm 31.2 31.9 17.1 42 9.0 WNW 9 11 5 6 1009.1 1007.8 0.2
19/11:30am 30.8 32.6 18.8 48 7.8 N 7 13 4 7 1009.4 1008.1 0.2
19/11:00am 29.7 31.9 19.1 53 6.9 N 6 11 3 6 1009.8 1008.5 0.2
19/10:30am 28.6 30.7 19.0 56 6.2 WNW 6 11 3 6 1010.4 1009.1 0.0
19/10:00am 27.9 30.0 18.9 58 5.8 SSE 6 11 3 6 1010.8 1009.5 0.0
19/09:30am 27.5 28.3 19.0 59 5.5 SE 13 17 7 9 1010.5 1009.2 0.0
19/09:00am 27.5 28.3 19.0 59 5.5 E 13 19 7 10 1010.4 1009.1 3.2
19/08:30am 27.3 28.7 19.6 62 5.0 ENE 11 17 6 9 1010.4 1009.1 3.2
19/08:00am 26.2 29.7 20.3 70 3.9 NE 2 7 1 4 1010.5 1009.2 3.2
19/07:30am 25.5 28.7 20.5 74 3.3 NNE 4 7 2 4 1010.5 1009.2 3.2
19/07:00am 24.9 26.3 20.4 76 3.0 NNE 13 19 7 10 1010.1 1008.8 3.2
19/06:30am 24.7 25.9 20.0 75 3.1 NE 13 20 7 11 1008.9 1007.6 3.2
19/06:00am 24.4 25.4 19.5 74 3.2 NE 13 19 7 10 1008.8 1007.5 3.2
19/05:30am 24.4 24.1 18.3 69 3.9 NE 17 24 9 13 1008.3 1007.1 3.2
19/05:00am 24.3 24.0 18.2 68 3.9 NE 17 28 9 15 1008.2 1007.0 3.2
19/04:30am 24.0 24.4 19.1 74 3.1 NE 15 19 8 10 1008.3 1007.1 3.2
19/04:00am 23.8 25.9 20.1 80 2.4 NE 9 13 5 7 1008.5 1007.3 3.2
19/03:30am 24.2 27.6 20.1 78 2.7 SSE 2 6 1 3 1009.0 1007.7 3.2
19/03:00am 24.1 26.1 20.0 78 2.7 SSE 9 11 5 6 1009.2 1007.9 3.2
19/02:30am 24.5 26.4 19.8 75 3.1 SE 9 13 5 7 1009.5 1008.2 3.2
19/02:00am 24.0 24.8 19.9 78 2.7 SSE 15 19 8 10 1009.8 1008.5 3.2
19/01:30am 23.8 24.0 20.1 80 2.4 SE 19 26 10 14 1010.0 1008.7 3.2
19/01:00am 23.8 23.4 20.1 80 2.4 SSE 22 28 12 15 1010.2 1008.9 3.2
19/12:30am 23.7 24.1 20.6 83 2.0 SSE 19 24 10 13 1010.8 1009.5 3.2
19/12:00am 24.0 24.8 21.3 85 1.8 SSE 19 26 10 14 1011.1 1009.8 3.2
 
Date/Time
EST
Temp
°C
App
Temp
°C
Dew
Point
°C
Rel
Hum
%
Delta-T
°C
Wind Press
QNH
hPa
Press
MSL
hPa
Rain since
9am
mm
Dir  Spd
km/h
Gust
km/h
Spd
kts
Gust
kts
18/11:30pm 23.5 22.7 20.8 85 1.8 S 26 39 14 21 1011.4 1010.1 3.2
18/11:00pm 27.8 26.8 18.8 58 5.8 S 22 35 12 19 1011.7 1010.4 0.0
18/10:30pm 29.5 29.0 18.6 52 7.1 SW 19 28 10 15 1011.2 1009.9 0.0
18/10:00pm 28.7 29.1 18.2 53 6.8 NNE 13 19 7 10 1009.9 1008.6 0.0
18/09:30pm 29.4 30.0 18.5 52 7.1 NNE 13 22 7 12 1009.3 1008.0 0.0
18/09:00pm 30.1 29.3 18.5 49 7.5 NNE 20 30 11 16 1008.7 1007.4 0.0
18/08:30pm 30.8 30.0 18.5 47 8.0 NNE 20 30 11 16 1008.3 1007.1 0.0
18/08:00pm 31.8 30.2 18.4 45 8.7 NNE 24 32 13 17 1007.9 1006.6 0.0
18/07:30pm 31.8 31.1 14.4 34 10.7 NNE 11 13 6 7 1007.2 1005.9 0.0
18/07:00pm 33.3 32.2 14.4 32 11.7 NNE 13 17 7 9 1006.7 1005.4 0.0
18/06:30pm 34.8 33.3 14.1 28 12.8 NNE 15 22 8 12 1006.4 1005.1 0.0
18/06:00pm 36.1 34.2 14.1 26 13.7 NNE 17 22 9 12 1006.2 1004.9 0.0
18/05:30pm 35.9 33.9 14.0 27 13.6 N 17 24 9 13 1006.1 1004.8 0.0
18/05:00pm 36.8 34.3 14.1 25 14.2 N 20 28 11 15 1006.0 1004.7 0.0
18/04:30pm 37.1 37.2 13.8 25 14.5 E 6 11 3 6 1006.2 1004.9 0.0
18/04:00pm 37.2 36.6 14.5 26 14.3 NW 11 20 6 11 1006.7 1005.4 0.0
18/03:30pm 37.7 36.2 14.3 25 14.7 NNE 15 22 8 12 1007.2 1005.9 0.0

Other Formats:

Comma delimited format used in spreadsheet applications
http://www.bom.gov.au/fwo/IDQ60801/IDQ60801.94398.axf

JavaScript Object Notation format (JSON) in row-major order
http://www.bom.gov.au/fwo/IDQ60801/IDQ60801.94398.json